Time;durP1;ratioP1;P1;durP2;ratioP2;P2;SDS_P1;SDS_P2;PMS_P1;PMS_P2;Temp;Humidity;BMP_temperature;BMP_pressure;BME280_temperature;BME280_humidity;BME280_pressure;Samples;Min_cycle;Max_cycle;Signal;HPM_P1;HPM_P2
2023/10/03 00:00:27;;;;;;;29.67;20.88;;;17.70;99.90;;;;;;5133216;27;20443;-67
2023/10/03 00:02:57;;;;;;;31.58;21.27;;;17.60;99.90;;;;;;5108400;27;20057;-67
2023/10/03 00:05:24;;;;;;;35.80;22.00;;;17.60;99.90;;;;;;5134822;27;20040;-66
2023/10/03 00:07:51;;;;;;;32.17;21.75;;;17.60;99.90;;;;;;5134631;27;20996;-66
2023/10/03 00:10:17;;;;;;;32.65;22.17;;;17.60;99.90;;;;;;5105658;27;20031;-66
2023/10/03 00:12:48;;;;;;;33.83;21.50;;;17.50;99.90;;;;;;5103649;27;20050;-66
2023/10/03 00:15:15;;;;;;;34.25;22.77;;;17.60;99.90;;;;;;5102240;28;20043;-66
2023/10/03 00:17:41;;;;;;;35.78;22.60;;;17.50;99.90;;;;;;5104604;28;20050;-67
2023/10/03 00:20:08;;;;;;;34.33;22.73;;;17.50;99.90;;;;;;5103017;28;20044;-66
2023/10/03 00:22:34;;;;;;;29.48;21.42;;;17.50;99.90;;;;;;5102381;28;20108;-66
2023/10/03 00:25:01;;;;;;;39.20;24.20;;;17.50;99.90;;;;;;5100776;27;20043;-66
2023/10/03 00:27:28;;;;;;;34.75;20.90;;;17.40;99.90;;;;;;5100713;28;20039;-66
2023/10/03 00:29:55;;;;;;;30.25;20.13;;;17.40;99.90;;;;;;5103805;27;20039;-66
2023/10/03 00:32:20;;;;;;;32.10;19.75;;;17.40;99.90;;;;;;5103642;28;20043;-66
2023/10/03 00:34:46;;;;;;;33.53;22.00;;;17.40;99.90;;;;;;5104617;27;20042;-66
2023/10/03 00:37:12;;;;;;;34.92;20.60;;;17.40;99.90;;;;;;5101730;27;20051;-67
2023/10/03 00:39:37;;;;;;;34.10;23.00;;;17.40;99.90;;;;;;5105429;27;20036;-67
2023/10/03 00:42:09;;;;;;;34.03;21.85;;;17.40;99.90;;;;;;5100056;28;20046;-67
2023/10/03 00:44:34;;;;;;;35.08;21.20;;;17.40;99.90;;;;;;5134512;27;20367;-67
2023/10/03 00:47:00;;;;;;;30.45;20.50;;;17.40;99.90;;;;;;5101834;28;20035;-67
2023/10/03 00:49:28;;;;;;;33.67;20.50;;;17.40;99.90;;;;;;5101665;28;20028;-67
2023/10/03 00:51:56;;;;;;;33.10;20.17;;;17.40;99.90;;;;;;5107718;27;20058;-66
2023/10/03 00:54:22;;;;;;;31.25;20.80;;;17.40;99.90;;;;;;5099593;27;20119;-66
2023/10/03 00:56:49;;;;;;;30.17;20.65;;;17.50;99.90;;;;;;5102369;28;20457;-66
2023/10/03 00:59:14;;;;;;;31.90;20.30;;;17.50;99.90;;;;;;5101713;28;20154;-66
2023/10/03 01:01:41;;;;;;;30.08;19.45;;;17.50;99.90;;;;;;5100084;27;20454;-66
2023/10/03 01:04:16;;;;;;;34.33;20.85;;;17.50;99.90;;;;;;5102449;28;20131;-66
2023/10/03 01:06:41;;;;;;;33.00;20.73;;;17.50;99.90;;;;;;5132662;27;20073;-67
2023/10/03 01:09:15;;;;;;;30.95;18.55;;;17.50;99.90;;;;;;5105018;28;20040;-67
2023/10/03 01:11:53;;;;;;;32.40;19.42;;;17.40;99.90;;;;;;5100994;28;20048;-67
2023/10/03 01:14:19;;;;;;;30.05;18.67;;;17.50;99.90;;;;;;5100285;28;20126;-67
2023/10/03 01:16:45;;;;;;;33.20;19.55;;;17.50;99.90;;;;;;5132385;27;20569;-67
2023/10/03 01:19:15;;;;;;;26.30;18.77;;;17.60;99.90;;;;;;5103818;27;20069;-67
2023/10/03 01:21:41;;;;;;;29.48;18.95;;;17.60;99.90;;;;;;5084649;27;20641;-67
2023/10/03 01:24:09;;;;;;;30.77;18.30;;;17.60;99.90;;;;;;5103729;28;20916;-66
2023/10/03 01:26:35;;;;;;;28.70;17.90;;;17.60;99.90;;;;;;5098910;28;20035;-66
2023/10/03 01:29:01;;;;;;;32.00;18.10;;;17.60;99.90;;;;;;5101413;28;20042;-66
2023/10/03 01:31:27;;;;;;;28.58;17.92;;;17.50;99.90;;;;;;5131698;27;20040;-66
2023/10/03 01:33:53;;;;;;;30.45;18.65;;;17.60;99.90;;;;;;5104732;28;20053;-66
2023/10/03 01:36:19;;;;;;;27.38;17.33;;;17.60;99.90;;;;;;5132498;27;20036;-67
2023/10/03 01:38:45;;;;;;;32.10;18.45;;;17.60;99.90;;;;;;5101107;28;20093;-67
2023/10/03 01:41:12;;;;;;;27.85;16.65;;;17.60;99.90;;;;;;5100952;28;20426;-66
2023/10/03 01:43:43;;;;;;;25.77;17.13;;;17.60;99.90;;;;;;5099853;28;20073;-67
2023/10/03 01:46:09;;;;;;;26.70;17.20;;;17.60;99.90;;;;;;5101993;28;20053;-67
2023/10/03 01:48:34;;;;;;;28.60;18.33;;;17.60;99.90;;;;;;5082333;28;20073;-67
2023/10/03 01:51:02;;;;;;;29.42;18.25;;;17.60;99.90;;;;;;5101103;28;21605;-66
2023/10/03 01:53:29;;;;;;;27.77;17.55;;;17.60;99.90;;;;;;5102874;28;20092;-66
2023/10/03 01:55:55;;;;;;;28.67;17.80;;;17.60;99.90;;;;;;5099534;28;20090;-67
2023/10/03 01:58:24;;;;;;;27.80;16.27;;;17.70;99.90;;;;;;5099153;28;20067;-67
2023/10/03 02:00:50;;;;;;;26.60;17.05;;;17.70;99.90;;;;;;5099276;28;20050;-67
2023/10/03 02:03:18;;;;;;;30.05;16.77;;;17.70;99.90;;;;;;5099719;28;20143;-67
2023/10/03 02:05:44;;;;;;;28.55;17.38;;;17.70;99.90;;;;;;5104570;28;20071;-67
2023/10/03 02:08:15;;;;;;;29.80;19.10;;;17.70;99.90;;;;;;5083777;28;20039;-66
2023/10/03 02:10:46;;;;;;;28.65;18.27;;;17.70;99.90;;;;;;5098777;28;20512;-67
2023/10/03 02:13:17;;;;;;;30.20;17.70;;;17.70;99.90;;;;;;5098225;28;20043;-67
2023/10/03 02:15:44;;;;;;;26.48;16.88;;;17.70;99.90;;;;;;5097399;28;20050;-66
2023/10/03 02:18:10;;;;;;;29.33;18.25;;;17.70;99.90;;;;;;5101364;28;20077;-66
2023/10/03 02:20:47;;;;;;;26.02;17.27;;;17.70;99.90;;;;;;5101059;28;20047;-66
2023/10/03 02:23:25;;;;;;;30.63;19.05;;;17.70;99.90;;;;;;5105328;28;20409;-67
2023/10/03 02:25:56;;;;;;;29.15;17.70;;;17.70;99.90;;;;;;5119574;27;20039;-67
2023/10/03 02:28:24;;;;;;;29.48;16.23;;;17.70;99.90;;;;;;5102264;28;20790;-66
2023/10/03 02:30:51;;;;;;;28.80;17.65;;;17.70;99.90;;;;;;5100041;28;20032;-66
2023/10/03 02:33:18;;;;;;;30.52;17.33;;;17.70;99.90;;;;;;5100604;28;20180;-66
2023/10/03 02:35:47;;;;;;;30.77;17.98;;;17.60;99.90;;;;;;5100527;28;20792;-67
2023/10/03 02:38:57;;;;;;;27.38;17.35;;;17.80;99.90;;;;;;5100969;28;20031;-67
2023/10/03 02:41:07;;;;;;;25.23;15.50;;;17.60;99.90;;;;;;5102405;27;20035;-67
2023/10/03 02:43:35;;;;;;;29.08;17.63;;;17.70;99.90;;;;;;5132284;27;20061;-66
2023/10/03 02:46:07;;;;;;;27.70;16.20;;;17.60;99.90;;;;;;5090461;27;20035;-66
2023/10/03 02:48:33;;;;;;;32.95;18.58;;;17.70;99.90;;;;;;5107839;27;20393;-66
2023/10/03 02:51:01;;;;;;;28.00;17.33;;;17.60;99.90;;;;;;5108507;27;20043;-66
2023/10/03 02:53:26;;;;;;;32.45;17.98;;;17.60;99.90;;;;;;5136940;27;20126;-67
2023/10/03 02:55:52;;;;;;;31.13;18.23;;;17.60;99.90;;;;;;5104269;28;20134;-66
2023/10/03 02:58:20;;;;;;;29.17;17.40;;;17.60;99.90;;;;;;5105763;27;20117;-66
2023/10/03 03:00:48;;;;;;;25.27;16.30;;;17.60;99.90;;;;;;5104930;27;20047;-66
2023/10/03 03:03:14;;;;;;;28.60;16.50;;;17.60;99.90;;;;;;5102482;28;20383;-66
2023/10/03 03:05:42;;;;;;;28.00;16.55;;;17.60;99.90;;;;;;5106379;27;20125;-66
2023/10/03 03:10:55;;;;;;;31.05;17.90;;;17.60;99.90;;;;;;5104164;27;20077;-66
2023/10/03 03:13:25;;;;;;;26.58;15.85;;;17.60;99.90;;;;;;5137278;27;20048;-67
2023/10/03 03:15:53;;;;;;;28.83;16.48;;;17.70;99.90;;;;;;5137133;27;20089;-66
2023/10/03 03:18:24;;;;;;;30.45;17.35;;;17.60;99.90;;;;;;5103015;28;20043;-66
2023/10/03 03:20:53;;;;;;;27.98;17.60;;;17.60;99.90;;;;;;5102494;28;20054;-66
2023/10/03 03:23:20;;;;;;;28.00;17.17;;;17.60;99.90;;;;;;5103189;28;20040;-66
2023/10/03 03:25:49;;;;;;;29.58;17.33;;;17.60;99.90;;;;;;5104641;27;20040;-66
2023/10/03 03:28:15;;;;;;;27.77;16.48;;;17.70;99.90;;;;;;5090959;28;20047;-67
2023/10/03 03:30:45;;;;;;;25.48;15.95;;;17.70;99.90;;;;;;5107183;27;20402;-67
2023/10/03 03:33:19;;;;;;;28.75;16.60;;;17.70;99.90;;;;;;5104854;27;20043;-67
2023/10/03 03:35:48;;;;;;;34.17;16.65;;;17.70;99.90;;;;;;5106215;27;20393;-67
2023/10/03 03:38:15;;;;;;;25.13;15.90;;;17.70;99.90;;;;;;5104843;27;20039;-66
2023/10/03 03:40:45;;;;;;;27.90;16.92;;;17.80;99.90;;;;;;5103209;27;20086;-66
2023/10/03 03:43:13;;;;;;;29.02;17.27;;;17.70;99.90;;;;;;5103961;27;20043;-66
2023/10/03 03:45:39;;;;;;;25.35;15.45;;;17.70;99.90;;;;;;5108608;28;20044;-66
2023/10/03 03:48:06;;;;;;;32.95;17.00;;;17.70;99.90;;;;;;5105906;28;20046;-66
2023/10/03 03:50:32;;;;;;;26.20;15.48;;;17.80;99.90;;;;;;5104293;27;20046;-66
2023/10/03 03:53:02;;;;;;;32.80;15.05;;;17.80;99.90;;;;;;5104648;27;20039;-66
2023/10/03 03:55:31;;;;;;;26.50;15.52;;;17.80;99.90;;;;;;5103155;28;20047;-67
2023/10/03 03:57:59;;;;;;;36.95;16.13;;;17.80;99.90;;;;;;5102675;27;20494;-67
2023/10/03 04:00:32;;;;;;;24.35;15.55;;;17.80;99.90;;;;;;5089106;27;20043;-66
2023/10/03 04:02:59;;;;;;;26.88;16.17;;;17.80;99.90;;;;;;5101161;28;20214;-67
2023/10/03 04:05:25;;;;;;;27.90;16.08;;;17.80;99.90;;;;;;5134509;27;21362;-67
2023/10/03 04:07:51;;;;;;;26.88;15.10;;;17.80;99.90;;;;;;5103362;27;20040;-66
2023/10/03 04:10:18;;;;;;;21.15;14.05;;;17.80;99.90;;;;;;5100798;28;20073;-66
2023/10/03 04:12:43;;;;;;;27.35;15.98;;;17.90;99.90;;;;;;5104113;27;20039;-67
2023/10/03 04:15:18;;;;;;;32.78;16.23;;;17.90;99.90;;;;;;5104254;27;20512;-67
2023/10/03 04:17:44;;;;;;;29.63;14.97;;;17.90;99.90;;;;;;5102476;27;20079;-66
2023/10/03 04:20:23;;;;;;;27.98;16.10;;;17.90;99.90;;;;;;5133458;27;20077;-67
2023/10/03 04:22:50;;;;;;;22.75;14.68;;;18.00;99.90;;;;;;5103202;27;20086;-67
2023/10/03 04:25:20;;;;;;;26.83;15.07;;;18.00;99.90;;;;;;5105369;27;20048;-67
2023/10/03 04:27:56;;;;;;;33.22;15.27;;;18.00;99.90;;;;;;5105104;27;20028;-66
2023/10/03 04:30:26;;;;;;;37.90;16.17;;;18.00;99.90;;;;;;5102110;27;20657;-66
2023/10/03 04:32:54;;;;;;;27.02;16.33;;;18.10;99.90;;;;;;5099712;27;20146;-66
2023/10/03 04:35:21;;;;;;;33.40;15.52;;;18.10;99.90;;;;;;5133096;27;20047;-66
2023/10/03 04:37:51;;;;;;;36.17;14.88;;;18.10;99.90;;;;;;5101420;27;20047;-66
2023/10/03 04:40:22;;;;;;;25.08;15.23;;;18.00;99.90;;;;;;5101817;28;20040;-66
2023/10/03 04:42:52;;;;;;;30.33;14.18;;;18.00;99.90;;;;;;5102661;27;20055;-66
2023/10/03 04:45:19;;;;;;;28.02;14.88;;;18.10;99.90;;;;;;5101674;27;20048;-66
2023/10/03 04:47:47;;;;;;;24.52;13.90;;;18.10;99.90;;;;;;5130813;27;20080;-66
2023/10/03 04:50:17;;;;;;;37.67;14.80;;;18.10;99.90;;;;;;5100109;28;20292;-66
2023/10/03 04:52:43;;;;;;;33.95;15.55;;;18.10;99.90;;;;;;5134917;27;20047;-66
2023/10/03 04:55:09;;;;;;;36.03;14.32;;;18.20;99.90;;;;;;5101747;28;20386;-67
2023/10/03 04:57:35;;;;;;;25.75;14.57;;;18.20;99.90;;;;;;5105158;27;20058;-67
2023/10/03 05:00:03;;;;;;;27.80;14.13;;;18.20;99.90;;;;;;5098605;28;20143;-67
2023/10/03 05:02:30;;;;;;;25.98;13.88;;;18.30;99.90;;;;;;5132672;27;20035;-66
2023/10/03 05:04:55;;;;;;;23.20;14.18;;;18.30;99.90;;;;;;5135299;27;20389;-66
2023/10/03 05:07:25;;;;;;;37.03;14.98;;;18.40;99.90;;;;;;5102483;28;20028;-66
2023/10/03 05:09:51;;;;;;;24.02;13.85;;;18.40;99.90;;;;;;5102162;27;20158;-66
2023/10/03 05:12:17;;;;;;;22.02;12.85;;;18.40;99.90;;;;;;5102621;27;20077;-66
2023/10/03 05:14:45;;;;;;;23.48;13.07;;;18.40;99.90;;;;;;5103333;28;20048;-66
2023/10/03 05:17:10;;;;;;;22.00;11.93;;;18.50;99.90;;;;;;5132224;27;20051;-66
2023/10/03 05:19:36;;;;;;;29.23;12.27;;;18.50;99.90;;;;;;5101748;27;20505;-66
2023/10/03 05:22:03;;;;;;;20.88;11.82;;;18.50;99.90;;;;;;5101499;28;20035;-66
2023/10/03 05:24:32;;;;;;;24.35;12.13;;;18.60;99.90;;;;;;5103198;28;20535;-66
2023/10/03 05:26:58;;;;;;;20.48;11.20;;;18.60;99.90;;;;;;5105207;28;20047;-66
2023/10/03 05:29:26;;;;;;;20.10;10.13;;;18.70;99.90;;;;;;5102490;28;20027;-67
2023/10/03 05:31:52;;;;;;;27.10;10.50;;;18.70;99.90;;;;;;5096247;28;20043;-66
2023/10/03 05:34:20;;;;;;;22.02;10.25;;;18.70;99.90;;;;;;5102427;28;20402;-66
2023/10/03 05:36:46;;;;;;;27.35;11.05;;;18.80;99.90;;;;;;5100875;28;20129;-66
2023/10/03 05:39:12;;;;;;;26.50;11.25;;;18.90;99.90;;;;;;5097563;28;20040;-66
2023/10/03 05:41:42;;;;;;;21.55;10.20;;;18.90;99.90;;;;;;5100756;28;20515;-66
2023/10/03 05:44:12;;;;;;;24.38;10.43;;;18.90;99.90;;;;;;5099667;28;20038;-66
2023/10/03 05:46:42;;;;;;;25.77;10.52;;;18.90;99.90;;;;;;5118046;27;20061;-67
2023/10/03 05:49:09;;;;;;;24.15;10.73;;;18.90;99.90;;;;;;5101529;28;20036;-66
2023/10/03 05:51:34;;;;;;;21.63;9.75;;;18.80;99.90;;;;;;5098985;28;20031;-66
2023/10/03 05:54:01;;;;;;;27.95;9.63;;;18.90;99.90;;;;;;5101805;28;20072;-66
2023/10/03 05:56:27;;;;;;;23.63;9.57;;;18.90;99.90;;;;;;5097768;28;20050;-67
2023/10/03 05:58:53;;;;;;;24.90;9.40;;;18.90;99.90;;;;;;5100634;28;20409;-67
2023/10/03 06:01:19;;;;;;;19.75;8.50;;;18.90;99.90;;;;;;5102966;28;20044;-67
2023/10/03 06:03:45;;;;;;;18.42;7.57;;;18.90;99.90;;;;;;5084377;28;20050;-67
2023/10/03 06:06:11;;;;;;;19.17;7.38;;;19.00;99.90;;;;;;5097818;28;20040;-67
2023/10/03 06:08:36;;;;;;;26.15;8.77;;;18.90;99.90;;;;;;5094566;28;20580;-67
2023/10/03 06:11:05;;;;;;;19.92;6.95;;;18.90;99.90;;;;;;5103171;28;20185;-67
2023/10/03 06:13:31;;;;;;;14.82;6.78;;;18.90;99.90;;;;;;5101927;27;20039;-67
2023/10/03 06:15:59;;;;;;;19.88;7.00;;;18.90;99.90;;;;;;5104436;28;20054;-67
2023/10/03 06:18:27;;;;;;;15.68;6.13;;;18.80;99.90;;;;;;5090156;28;20091;-67
2023/10/03 06:20:53;;;;;;;17.15;5.97;;;18.90;99.90;;;;;;5105800;28;20257;-67
2023/10/03 06:23:18;;;;;;;13.07;5.80;;;18.90;99.90;;;;;;5105324;28;20031;-67
2023/10/03 06:25:44;;;;;;;13.98;5.88;;;18.80;99.90;;;;;;5102528;28;20027;-67
2023/10/03 06:28:10;;;;;;;12.93;6.28;;;18.80;99.90;;;;;;5105566;28;20405;-67
2023/10/03 06:30:38;;;;;;;15.75;5.95;;;18.80;99.90;;;;;;5086229;28;20036;-67
2023/10/03 06:33:05;;;;;;;11.20;5.32;;;18.70;99.90;;;;;;5099843;27;20122;-67
2023/10/03 06:35:32;;;;;;;14.40;5.03;;;18.70;99.90;;;;;;5105172;27;20047;-67
2023/10/03 06:37:58;;;;;;;14.38;4.65;;;18.70;99.90;;;;;;5110160;27;20071;-68
2023/10/03 06:40:23;;;;;;;18.67;4.53;;;18.70;99.90;;;;;;5110129;27;20123;-67
2023/10/03 06:42:49;;;;;;;9.85;4.18;;;18.70;99.90;;;;;;5085991;28;20050;-67
2023/10/03 06:45:14;;;;;;;15.25;3.92;;;18.70;99.90;;;;;;5106281;27;20062;-68
2023/10/03 06:47:40;;;;;;;16.25;4.15;;;18.60;99.90;;;;;;5105130;27;20173;-67
2023/10/03 06:50:07;;;;;;;5.90;2.80;;;18.60;99.90;;;;;;5101018;28;20046;-68
2023/10/03 06:52:34;;;;;;;10.70;3.47;;;18.70;99.90;;;;;;5104685;27;20251;-68
2023/10/03 06:55:03;;;;;;;12.35;3.40;;;18.70;99.90;;;;;;5106538;27;20080;-68
2023/10/03 06:57:28;;;;;;;13.77;3.35;;;18.60;99.90;;;;;;5106609;27;20119;-68
2023/10/03 06:59:54;;;;;;;9.07;2.58;;;18.50;99.90;;;;;;5104592;27;20173;-68
2023/10/03 07:02:20;;;;;;;11.18;2.83;;;18.60;99.90;;;;;;5102628;27;20485;-68
2023/10/03 07:04:46;;;;;;;10.60;2.95;;;18.60;99.90;;;;;;5104717;27;20563;-67
2023/10/03 07:07:12;;;;;;;11.50;3.45;;;18.60;99.90;;;;;;5102203;27;20048;-67
2023/10/03 07:09:38;;;;;;;13.35;3.10;;;18.60;99.90;;;;;;5135129;27;20076;-67
2023/10/03 07:12:07;;;;;;;10.00;2.42;;;18.70;99.90;;;;;;5101814;27;20099;-68
2023/10/03 07:14:35;;;;;;;9.82;2.92;;;18.70;99.90;;;;;;5119690;27;20044;-68
2023/10/03 07:17:02;;;;;;;12.98;3.00;;;18.70;99.90;;;;;;5101716;27;20867;-68
2023/10/03 07:19:31;;;;;;;8.90;2.95;;;18.60;99.90;;;;;;5133627;27;20489;-68
2023/10/03 07:21:57;;;;;;;11.60;3.78;;;18.60;99.90;;;;;;5109643;27;20405;-68
2023/10/03 07:24:25;;;;;;;9.25;3.05;;;18.50;99.90;;;;;;5106648;27;20036;-68
2023/10/03 07:26:51;;;;;;;10.80;3.08;;;18.40;99.90;;;;;;5104542;27;20039;-68
2023/10/03 07:29:17;;;;;;;8.93;3.20;;;18.30;99.90;;;;;;5100499;27;20347;-68
2023/10/03 07:31:43;;;;;;;9.00;3.08;;;18.20;99.90;;;;;;5087908;28;20039;-68
2023/10/03 07:34:09;;;;;;;9.40;3.38;;;18.20;99.90;;;;;;5108426;28;20036;-68
2023/10/03 07:36:35;;;;;;;7.00;2.65;;;18.10;99.90;;;;;;5107015;27;20073;-68
2023/10/03 07:39:01;;;;;;;11.13;3.30;;;18.10;99.90;;;;;;5102466;27;20044;-68
2023/10/03 07:41:27;;;;;;;7.85;3.00;;;18.00;99.90;;;;;;5114774;27;20517;-68
2023/10/03 07:43:52;;;;;;;9.98;4.57;;;18.00;99.90;;;;;;5103170;27;20044;-68
2023/10/03 07:46:26;;;;;;;10.18;4.03;;;18.00;99.90;;;;;;5106264;27;20071;-68
2023/10/03 07:48:52;;;;;;;11.38;3.97;;;18.00;99.90;;;;;;5105863;27;20040;-68
2023/10/03 07:51:26;;;;;;;13.02;4.00;;;18.00;99.90;;;;;;5105213;27;20039;-68
2023/10/03 07:53:52;;;;;;;9.25;3.95;;;17.90;99.90;;;;;;5104854;27;20043;-68
2023/10/03 07:56:29;;;;;;;8.63;3.10;;;17.90;99.90;;;;;;5108211;27;20042;-68
2023/10/03 07:58:56;;;;;;;10.73;3.67;;;17.90;99.90;;;;;;5104895;27;20035;-68
2023/10/03 08:01:25;;;;;;;9.80;3.55;;;17.90;99.90;;;;;;5102418;27;20039;-68
2023/10/03 08:03:56;;;;;;;11.75;4.63;;;17.90;99.90;;;;;;5103583;27;20803;-68
2023/10/03 08:06:33;;;;;;;6.90;3.47;;;17.90;99.90;;;;;;5135391;27;20039;-68
2023/10/03 08:08:59;;;;;;;9.20;3.30;;;17.80;99.90;;;;;;5105124;27;20492;-68
2023/10/03 08:11:30;;;;;;;13.38;3.88;;;17.90;99.90;;;;;;5105838;27;20044;-68
2023/10/03 08:14:00;;;;;;;8.77;3.13;;;17.80;99.90;;;;;;5138729;27;20126;-68
2023/10/03 08:16:34;;;;;;;9.77;3.13;;;17.80;99.90;;;;;;5102000;27;20035;-68
2023/10/03 08:19:01;;;;;;;7.07;2.67;;;17.80;99.90;;;;;;5105064;27;20080;-68
2023/10/03 08:21:28;;;;;;;8.23;2.55;;;17.70;99.90;;;;;;5108991;27;20039;-68
2023/10/03 08:23:58;;;;;;;7.70;3.00;;;17.70;99.90;;;;;;5101929;27;20036;-68
2023/10/03 08:26:25;;;;;;;8.70;1.85;;;17.70;99.90;;;;;;5107735;27;20185;-68
2023/10/03 08:28:59;;;;;;;5.88;2.17;;;17.70;99.90;;;;;;5132262;27;20039;-68
2023/10/03 08:31:28;;;;;;;9.45;2.55;;;17.70;99.90;;;;;;5089661;28;20040;-68
2023/10/03 08:33:57;;;;;;;7.30;2.30;;;17.70;99.90;;;;;;5132511;27;20047;-68
2023/10/03 08:36:28;;;;;;;9.52;3.20;;;17.70;99.90;;;;;;5100683;27;20044;-68
2023/10/03 08:39:13;;;;;;;8.77;2.25;;;17.70;99.90;;;;;;5133244;27;20382;-68
2023/10/03 08:41:53;;;;;;;7.37;1.90;;;17.60;99.90;;;;;;5105275;27;20074;-68
2023/10/03 08:44:22;;;;;;;3.60;1.55;;;17.60;99.90;;;;;;5102151;27;20528;-68
2023/10/03 08:46:58;;;;;;;8.35;1.42;;;17.50;99.90;;;;;;5104712;27;20047;-68
2023/10/03 08:49:27;;;;;;;7.70;2.35;;;17.50;99.90;;;;;;5101632;27;20078;-68
2023/10/03 08:51:54;;;;;;;3.88;1.27;;;17.50;99.90;;;;;;5105185;27;20473;-68
2023/10/03 08:54:20;;;;;;;7.38;1.60;;;17.50;99.90;;;;;;5101243;27;20048;-68
2023/10/03 08:56:46;;;;;;;5.28;1.20;;;17.50;99.90;;;;;;5100294;27;20045;-68
2023/10/03 08:59:15;;;;;;;3.65;0.98;;;17.50;99.90;;;;;;5085906;28;20530;-68
2023/10/03 09:01:46;;;;;;;6.68;1.63;;;17.60;99.90;;;;;;5102659;27;20058;-68
2023/10/03 09:04:16;;;;;;;4.65;1.33;;;17.60;99.90;;;;;;5102402;27;20450;-68
2023/10/03 09:06:44;;;;;;;3.70;0.90;;;17.50;99.90;;;;;;5103178;27;20047;-68
2023/10/03 09:09:16;;;;;;;2.97;0.50;;;17.50;99.90;;;;;;5102147;27;20122;-68
2023/10/03 09:11:51;;;;;;;3.78;0.73;;;17.50;99.90;;;;;;5102803;27;20036;-68
2023/10/03 09:14:20;;;;;;;3.63;0.73;;;17.50;99.90;;;;;;5104948;27;20031;-68
2023/10/03 09:16:53;;;;;;;3.42;0.50;;;17.50;99.90;;;;;;5087069;28;20059;-68
2023/10/03 09:19:23;;;;;;;3.15;0.88;;;17.50;99.90;;;;;;5130642;27;20043;-68
2023/10/03 09:21:55;;;;;;;2.83;0.40;;;17.40;99.90;;;;;;5100943;28;20044;-68
2023/10/03 09:24:24;;;;;;;2.17;0.30;;;17.30;99.90;;;;;;5101818;28;20043;-68
2023/10/03 09:26:52;;;;;;;3.03;0.30;;;17.10;99.90;;;;;;5104753;28;20055;-68
2023/10/03 09:29:32;;;;;;;4.15;0.47;;;17.10;99.90;;;;;;5100123;28;20355;-68
2023/10/03 09:32:07;;;;;;;4.20;0.73;;;17.00;99.90;;;;;;5101126;28;20043;-68
2023/10/03 09:34:34;;;;;;;4.43;0.70;;;17.00;99.90;;;;;;5137087;27;20052;-68
2023/10/03 09:37:03;;;;;;;3.17;0.45;;;16.90;99.90;;;;;;5105863;27;20046;-68
2023/10/03 09:39:39;;;;;;;3.58;0.55;;;16.90;99.90;;;;;;5099094;28;20088;-68
2023/10/03 09:42:15;;;;;;;6.90;1.00;;;16.90;99.90;;;;;;5106187;28;20043;-68
2023/10/03 09:44:43;;;;;;;3.40;0.45;;;16.90;99.90;;;;;;5132040;27;21884;-68
2023/10/03 09:47:09;;;;;;;1.67;0.60;;;16.80;99.90;;;;;;5102150;28;20036;-68
2023/10/03 09:49:38;;;;;;;1.38;0.40;;;16.70;99.90;;;;;;5121391;27;20050;-68
2023/10/03 09:52:08;;;;;;;2.35;0.65;;;16.60;99.90;;;;;;5105555;27;20035;-68
2023/10/03 09:54:35;;;;;;;4.57;0.30;;;16.60;99.90;;;;;;5106033;27;20036;-68
2023/10/03 09:57:09;;;;;;;4.00;0.38;;;16.60;99.90;;;;;;5120519;27;20975;-68
2023/10/03 09:59:35;;;;;;;2.78;0.30;;;16.60;99.90;;;;;;5108625;27;20111;-68
2023/10/03 10:02:02;;;;;;;3.55;0.30;;;16.60;99.90;;;;;;5109357;27;20484;-68
2023/10/03 10:04:30;;;;;;;4.45;0.40;;;16.60;99.90;;;;;;5101984;27;20040;-68
2023/10/03 10:07:33;;;;;;;2.13;0.30;;;16.60;99.90;;;;;;5109338;27;20043;-68
2023/10/03 10:10:09;;;;;;;4.40;0.30;;;16.60;99.90;;;;;;5098436;27;20096;-68
2023/10/03 10:12:42;;;;;;;3.80;0.47;;;16.60;99.90;;;;;;5101415;27;20489;-68
2023/10/03 10:17:51;;;;;;;3.20;0.25;;;16.60;99.90;;;;;;5108951;27;20409;-68
2023/10/03 10:20:27;;;;;;;5.57;0.43;;;16.60;99.90;;;;;;5110683;27;20036;-68
2023/10/03 10:22:59;;;;;;;2.70;0.30;;;16.60;99.90;;;;;;5106170;27;20035;-68
2023/10/03 10:25:29;;;;;;;2.10;0.40;;;16.60;99.90;;;;;;5103752;27;20481;-69
2023/10/03 10:28:07;;;;;;;3.03;0.35;;;16.60;99.90;;;;;;5106439;27;20081;-68
2023/10/03 10:30:42;;;;;;;2.05;0.20;;;16.70;99.90;;;;;;5107031;27;20114;-68
2023/10/03 10:33:17;;;;;;;3.95;0.55;;;16.70;99.90;;;;;;5104925;27;20032;-68
2023/10/03 10:35:55;;;;;;;1.15;0.22;;;16.70;99.90;;;;;;5104828;27;20112;-68
2023/10/03 10:38:41;;;;;;;3.22;0.50;;;16.70;99.90;;;;;;5106790;27;20404;-68
2023/10/03 10:41:22;;;;;;;1.83;0.50;;;16.80;99.90;;;;;;5135267;27;20448;-68
2023/10/03 10:44:08;;;;;;;2.47;0.35;;;16.80;99.90;;;;;;5103505;27;20087;-68
2023/10/03 10:46:47;;;;;;;2.75;0.50;;;16.80;99.90;;;;;;5106540;27;20164;-68
2023/10/03 10:49:30;;;;;;;2.70;0.55;;;16.80;99.90;;;;;;5115835;27;20040;-68
2023/10/03 10:52:06;;;;;;;2.35;0.50;;;16.80;99.90;;;;;;5135420;27;20036;-68
2023/10/03 10:54:42;;;;;;;1.35;0.38;;;16.80;99.90;;;;;;5117793;27;20111;-68
2023/10/03 10:57:15;;;;;;;2.50;0.52;;;16.80;99.90;;;;;;5102674;27;20047;-68
2023/10/03 10:59:43;;;;;;;5.55;0.95;;;16.80;99.90;;;;;;5100148;27;20052;-68
2023/10/03 11:02:21;;;;;;;3.55;1.05;;;16.80;99.90;;;;;;5131261;27;20552;-68
2023/10/03 11:04:54;;;;;;;5.45;0.75;;;16.80;99.90;;;;;;5101945;27;20055;-68
2023/10/03 11:07:26;;;;;;;3.28;0.60;;;16.80;99.90;;;;;;5132626;27;20047;-68
2023/10/03 11:09:54;;;;;;;5.25;1.13;;;16.90;99.90;;;;;;5102700;27;20493;-68
2023/10/03 11:12:26;;;;;;;3.78;1.00;;;17.00;99.90;;;;;;5102136;27;20034;-68
2023/10/03 11:14:54;;;;;;;4.40;0.95;;;17.10;99.90;;;;;;5103346;28;20031;-68
2023/10/03 11:17:20;;;;;;;4.35;0.80;;;17.10;99.90;;;;;;5103074;28;20052;-68
2023/10/03 11:19:47;;;;;;;2.95;0.38;;;17.20;99.90;;;;;;5100304;27;20043;-68
2023/10/03 11:22:13;;;;;;;4.10;0.85;;;17.20;99.90;;;;;;5132815;27;20058;-68
2023/10/03 11:24:40;;;;;;;2.75;0.73;;;17.30;99.90;;;;;;5105047;28;20075;-68
2023/10/03 11:27:06;;;;;;;3.10;0.88;;;17.20;99.90;;;;;;5104717;27;20031;-68
2023/10/03 11:29:46;;;;;;;4.38;1.40;;;17.10;99.90;;;;;;5105554;27;20051;-68
2023/10/03 11:32:29;;;;;;;2.75;0.95;;;17.10;99.90;;;;;;5103644;27;20073;-68
2023/10/03 11:34:57;;;;;;;3.10;0.50;;;17.00;99.90;;;;;;5103885;27;20420;-68
2023/10/03 11:37:36;;;;;;;3.85;0.60;;;16.90;99.90;;;;;;5100541;28;20128;-68
2023/10/03 11:40:16;;;;;;;2.65;0.63;;;16.90;99.90;;;;;;5104373;27;20067;-68
2023/10/03 11:42:49;;;;;;;1.92;0.50;;;16.70;99.90;;;;;;5100165;27;20035;-68
2023/10/03 11:45:19;;;;;;;2.58;0.65;;;16.50;99.90;;;;;;5104059;27;20079;-68
2023/10/03 11:48:10;;;;;;;2.00;0.70;;;16.40;99.90;;;;;;5102504;28;20039;-68
2023/10/03 11:50:38;;;;;;;1.65;0.52;;;16.20;99.90;;;;;;5100254;28;20036;-68
2023/10/03 11:53:05;;;;;;;2.60;0.80;;;16.00;99.90;;;;;;5102725;28;20074;-68
2023/10/03 11:55:32;;;;;;;2.30;1.10;;;16.00;99.90;;;;;;5100911;28;20035;-69
2023/10/03 11:58:00;;;;;;;3.28;1.40;;;15.90;99.90;;;;;;5134311;27;20040;-69
2023/10/03 12:00:26;;;;;;;4.53;2.00;;;16.00;99.90;;;;;;5101936;27;20108;-69
2023/10/03 12:02:52;;;;;;;2.67;0.93;;;16.00;99.90;;;;;;5102699;27;20424;-69
2023/10/03 12:05:19;;;;;;;5.18;1.20;;;15.90;99.90;;;;;;5104789;28;20074;-69
2023/10/03 12:07:49;;;;;;;3.92;1.10;;;15.80;99.90;;;;;;5104226;27;20115;-68
2023/10/03 12:10:15;;;;;;;3.88;1.60;;;15.70;99.90;;;;;;5099260;27;20040;-68
2023/10/03 12:12:41;;;;;;;4.30;1.40;;;15.60;99.90;;;;;;5099084;28;20486;-68
2023/10/03 12:15:12;;;;;;;3.88;1.13;;;15.50;99.90;;;;;;5101315;27;20028;-68
2023/10/03 12:17:48;;;;;;;3.75;1.10;;;15.60;99.90;;;;;;5135186;27;20054;-68
2023/10/03 12:20:16;;;;;;;4.63;1.00;;;15.40;99.90;;;;;;5102312;28;20121;-68
2023/10/03 12:22:50;;;;;;;5.10;1.33;;;15.40;99.90;;;;;;5099056;28;20494;-68
2023/10/03 12:25:18;;;;;;;4.60;1.25;;;15.40;99.90;;;;;;5104764;27;20393;-68
2023/10/03 12:27:44;;;;;;;5.45;1.80;;;15.40;99.90;;;;;;5101095;28;20055;-68
2023/10/03 12:30:12;;;;;;;4.53;1.90;;;15.40;99.90;;;;;;5100332;27;20039;-68
2023/10/03 12:32:38;;;;;;;5.57;1.65;;;15.40;99.90;;;;;;5099736;28;21199;-68
2023/10/03 12:35:06;;;;;;;6.55;1.40;;;15.50;99.90;;;;;;5102333;27;20389;-69
2023/10/03 12:37:32;;;;;;;4.35;1.20;;;15.40;99.90;;;;;;5098143;28;20074;-68
2023/10/03 12:40:03;;;;;;;3.97;1.35;;;15.50;99.90;;;;;;5100809;27;20070;-68
2023/10/03 12:42:29;;;;;;;4.95;1.67;;;15.50;99.90;;;;;;5100148;27;20071;-68
2023/10/03 12:44:56;;;;;;;5.30;1.83;;;15.60;99.90;;;;;;5100093;27;21962;-68
2023/10/03 12:47:23;;;;;;;7.00;1.75;;;15.60;99.90;;;;;;5101929;28;20067;-68
2023/10/03 12:49:48;;;;;;;5.47;1.40;;;15.60;99.90;;;;;;5100670;27;20459;-68